Time;durP1;ratioP1;P1;durP2;ratioP2;P2;SDS_P1;SDS_P2;PMS_P1;PMS_P2;Temp;Humidity;BMP_temperature;BMP_pressure;BME280_temperature;BME280_humidity;BME280_pressure;Samples;Min_cycle;Max_cycle;Signal;HPM_P1;HPM_P2
2023/08/23 19:31:21;;;;;;;;;44.25;36.00;;;;;28.69;37.53;100793.94;146706;572;45022;-69
2023/08/23 19:34:38;;;;;;;;;42.25;35.00;;;;;28.26;37.93;100701.53;146623;725;46032;-69
2023/08/23 19:37:47;;;;;;;;;37.50;33.00;;;;;29.04;37.29;100798.53;146625;579;45021;-70
2023/08/23 19:41:03;;;;;;;;;;;;;;;;;;;;;
2023/08/23 19:44:00;;;;;;;;;40.50;35.00;;;;;29.40;37.09;100795.84;146625;617;45021;-70
2023/08/23 19:47:11;;;;;;;;;42.75;34.75;;;;;29.52;37.50;100800.00;146621;723;45017;-70
2023/08/23 19:50:29;;;;;;;;;42.25;35.50;;;;;28.94;37.22;100706.19;146626;611;45020;-69
2023/08/23 19:53:39;;;;;;;;;42.25;35.00;;;;;29.53;37.38;100801.75;146621;621;45017;-69
2023/08/23 19:56:37;;;;;;;;;43.25;35.50;;;;;29.62;36.92;100801.53;146624;619;46014;-70
2023/08/23 19:59:51;;;;;;;;;42.25;34.50;;;;;29.75;36.70;100802.09;146622;634;45017;-70
2023/08/23 20:03:06;;;;;;;;;42.00;35.00;;;;;29.71;36.73;100795.94;146624;591;45020;-70
2023/08/23 20:06:04;;;;;;;;;36.50;32.50;;;;;29.71;37.02;100805.78;146620;643;45916;-70
2023/08/23 20:09:11;;;;;;;;;38.50;33.00;;;;;29.72;37.66;100805.75;146625;573;45020;-70
2023/08/23 20:12:09;;;;;;;;;40.25;34.00;;;;;29.76;36.96;100815.44;146621;594;45016;-69
2023/08/23 20:15:04;;;;;;;;;44.00;35.75;;;;;29.77;36.74;100805.59;146625;565;45021;-70
2023/08/23 20:17:58;;;;;;;;;41.25;35.75;;;;;29.62;36.46;100794.41;146622;580;45016;-70
2023/08/23 20:20:50;;;;;;;;;38.25;32.50;;;;;29.63;36.80;100797.97;146626;648;45020;-70
2023/08/23 20:23:46;;;;;;;;;39.25;33.00;;;;;29.59;36.80;100797.13;146618;614;46014;-69
2023/08/23 20:26:39;;;;;;;;;39.50;33.75;;;;;29.53;36.88;100799.06;146625;578;45020;-70
2023/08/23 20:29:34;;;;;;;;;39.25;33.50;;;;;29.41;37.07;100800.28;146624;593;45016;-68
2023/08/23 20:32:46;;;;;;;;;43.00;34.50;;;;;29.28;36.98;100806.84;146623;632;45020;-68
2023/08/23 20:35:39;;;;;;;;;37.25;33.25;;;;;29.20;36.60;100797.22;146617;640;46016;-70
2023/08/23 20:38:36;;;;;;;;;37.00;30.75;;;;;29.14;37.45;100805.38;146621;563;46010;-71
2023/08/23 20:41:35;;;;;;;;;42.00;35.75;;;;;28.99;36.89;100795.91;146622;587;45032;-72
2023/08/23 20:44:34;;;;;;;;;39.00;32.75;;;;;28.94;37.01;100803.19;146626;611;46010;-72
2023/08/23 20:47:29;;;;;;;;;40.50;35.50;;;;;28.84;37.16;100798.94;146619;631;45016;-73
2023/08/23 20:50:30;;;;;;;;;41.25;34.25;;;;;28.72;37.76;100801.88;146627;636;46010;-77
2023/08/23 20:53:34;;;;;;;;;37.75;32.75;;;;;28.65;37.73;100806.47;146621;599;45916;-72
2023/08/23 20:56:40;;;;;;;;;36.50;31.00;;;;;28.64;37.86;100798.53;146624;563;45020;-73
2023/08/23 20:59:56;;;;;;;;;39.75;32.50;;;;;28.05;37.16;100690.44;146619;607;45017;-73
2023/08/23 21:03:09;;;;;;;;;;;;;;;;;;;;;
2023/08/23 21:06:22;;;;;;;;;38.00;32.00;;;;;28.65;37.41;100801.16;146620;603;45913;-73
2023/08/23 21:09:16;;;;;;;;;38.25;32.25;;;;;28.66;37.28;100802.94;146616;580;45920;-74
2023/08/23 21:12:12;;;;;;;;;38.50;32.00;;;;;28.73;37.26;100803.66;146622;579;45016;-72
2023/08/23 21:15:19;;;;;;;;;36.00;30.50;;;;;28.80;37.72;100799.06;146621;573;45020;-71
2023/08/23 21:18:24;;;;;;;;;35.75;30.50;;;;;28.81;37.00;100804.34;146623;569;45016;-71
2023/08/23 21:21:46;;;;;;;;;38.50;33.00;;;;;28.83;37.86;100813.22;146623;632;45021;-74
2023/08/23 21:24:50;;;;;;;;;41.75;34.50;;;;;28.87;37.84;100809.53;146621;601;45915;-72
2023/08/23 21:27:46;;;;;;;;;38.75;32.75;;;;;28.89;36.67;100805.06;146619;570;46021;-73
2023/08/23 21:30:42;;;;;;;;;41.00;34.00;;;;;28.92;37.17;100804.13;146619;642;45916;-72
2023/08/23 21:33:43;;;;;;;;;38.50;34.00;;;;;28.91;37.33;100805.00;146626;750;46014;-74
2023/08/23 21:36:46;;;;;;;;;42.75;35.25;;;;;28.80;36.97;100799.94;146616;576;45917;-72
2023/08/23 21:39:46;;;;;;;;;32.00;29.25;;;;;28.75;37.63;100797.38;146625;581;46010;-74
2023/08/23 21:42:53;;;;;;;;;38.50;34.50;;;;;28.79;37.80;100803.53;146618;644;45017;-72
2023/08/23 21:45:55;;;;;;;;;42.50;35.50;;;;;28.79;37.52;100795.53;146622;633;46020;-71
2023/08/23 21:49:05;;;;;;;;;43.00;36.00;;;;;28.76;37.90;100800.94;146619;723;45016;-70
2023/08/23 21:52:05;;;;;;;;;43.75;36.00;;;;;28.74;37.26;100792.06;146617;625;46010;-70
2023/08/23 21:55:14;;;;;;;;;45.75;36.75;;;;;28.68;37.26;100795.75;146618;565;46033;-70
2023/08/23 21:58:10;;;;;;;;;43.75;37.00;;;;;28.62;37.37;100784.34;146625;607;45021;-71
2023/08/23 22:01:25;;;;;;;;;44.50;36.75;;;;;28.54;38.87;100772.06;146619;590;46914;-70
2023/08/23 22:04:27;;;;;;;;;43.00;37.00;;;;;28.69;37.90;100789.53;146623;565;45022;-70
2023/08/23 22:07:38;;;;;;;;;46.50;37.50;;;;;28.69;37.60;100791.28;146619;580;45016;-73
2023/08/23 22:10:33;;;;;;;;;43.75;37.00;;;;;28.62;37.75;100787.00;146622;643;46014;-70
2023/08/23 22:13:59;;;;;;;;;42.25;35.75;;;;;27.68;38.38;100622.81;146618;608;46012;-69
2023/08/23 22:16:57;;;;;;;;;40.50;34.25;;;;;28.55;38.29;100781.81;146625;688;45020;-71
2023/08/23 22:19:55;;;;;;;;;43.50;36.00;;;;;28.50;37.94;100780.16;146621;569;45017;-71
2023/08/23 22:23:16;;;;;;;;;42.25;35.00;;;;;28.48;38.62;100776.66;146626;631;45020;-71
2023/08/23 22:26:32;;;;;;;;;;;;;;;;;;;;;
2023/08/23 22:29:32;;;;;;;;;41.50;34.00;;;;;28.60;37.71;100787.06;146626;566;45014;-74
2023/08/23 22:32:37;;;;;;;;;42.00;36.00;;;;;28.61;38.15;100783.47;146618;731;45915;-72
2023/08/23 22:35:47;;;;;;;;;40.75;35.50;;;;;28.59;37.72;100782.59;146624;616;45021;-70
2023/08/23 22:38:45;;;;;;;;;46.75;37.25;;;;;28.59;37.73;100787.06;146618;577;45016;-72
2023/08/23 22:41:38;;;;;;;;;43.25;37.25;;;;;28.60;37.79;100776.37;146621;569;46011;-71
2023/08/23 22:44:44;;;;;;;;;43.75;36.50;;;;;28.55;37.97;100772.94;146621;630;45016;-70
2023/08/23 22:47:47;;;;;;;;;44.25;36.50;;;;;28.51;37.49;100776.59;146616;627;45020;-72
2023/08/23 22:50:43;;;;;;;;;41.50;34.50;;;;;28.41;37.97;100770.59;146618;586;45033;-71
2023/08/23 22:53:41;;;;;;;;;44.50;37.00;;;;;28.40;38.33;100768.81;146623;572;45020;-70
2023/08/23 22:56:42;;;;;;;;;40.75;36.00;;;;;28.42;38.16;100767.00;146619;572;45016;-71
2023/08/23 22:59:49;;;;;;;;;39.75;34.00;;;;;28.37;37.38;100766.16;146624;691;45020;-71
2023/08/23 23:02:45;;;;;;;;;44.25;36.50;;;;;28.30;38.02;100759.22;146618;574;45016;-71
2023/08/23 23:05:39;;;;;;;;;43.25;35.25;;;;;28.29;38.10;100766.34;146621;583;45021;-70
2023/08/23 23:08:49;;;;;;;;;44.50;35.00;;;;;28.19;37.71;100767.44;146619;637;45928;-71
2023/08/23 23:11:42;;;;;;;;;40.00;35.00;;;;;28.06;38.12;100763.25;146620;592;45020;-69
2023/08/23 23:14:52;;;;;;;;;42.25;34.50;;;;;28.05;38.37;100756.19;146619;681;45917;-71
2023/08/23 23:17:52;;;;;;;;;39.00;33.50;;;;;28.00;38.56;100761.59;146622;576;45020;-73
2023/08/23 23:21:04;;;;;;;;;45.00;38.00;;;;;27.93;38.57;100772.41;146619;613;45916;-70
2023/08/23 23:24:42;;;;;;;;;40.25;34.50;;;;;27.87;38.34;100768.09;146623;600;45020;-73
2023/08/23 23:27:38;;;;;;;;;42.00;35.75;;;;;27.86;38.58;100769.00;146618;607;46013;-72
2023/08/23 23:30:33;;;;;;;;;38.00;33.00;;;;;27.86;38.25;100761.00;146622;656;45020;-72
2023/08/23 23:33:38;;;;;;;;;38.00;32.25;;;;;26.41;39.23;100509.81;146619;744;45915;-73
2023/08/23 23:36:39;;;;;;;;;37.50;32.00;;;;;27.79;38.68;100759.37;146622;655;45021;-70
2023/08/23 23:39:38;;;;;;;;;41.75;34.25;;;;;27.71;38.82;100750.62;146620;584;45915;-76
2023/08/23 23:42:35;;;;;;;;;41.25;32.75;;;;;27.62;39.06;100747.19;146621;566;45021;-76
2023/08/23 23:46:02;;;;;;;;;39.50;33.00;;;;;27.54;39.33;100749.16;146618;580;45915;-72
2023/08/23 23:49:00;;;;;;;;;38.00;32.00;;;;;27.53;39.63;100744.72;146620;577;45021;-73
2023/08/23 23:51:59;;;;;;;;;40.25;33.25;;;;;27.54;39.02;100754.47;146619;571;45016;-76
2023/08/23 23:55:08;;;;;;;;;;;;;;;;;;;;;
2023/08/23 23:58:09;;;;;;;;;39.25;32.75;;;;;27.40;39.45;100746.72;146617;574;46017;-73
